createdAt,value
2022-11-29T00:01:11.727Z,25.98
2022-11-29T00:03:43.737Z,23.35
2022-11-29T00:06:17.439Z,19.50
2022-11-29T00:08:50.256Z,25.33
2022-11-29T00:11:42.818Z,22.42
2022-11-29T00:14:18.400Z,24.52
2022-11-29T00:16:51.910Z,20.95
2022-11-29T00:19:24.028Z,26.23
2022-11-29T00:21:55.961Z,20.88
2022-11-29T00:24:28.685Z,22.92
2022-11-29T00:27:01.481Z,19.38
2022-11-29T00:29:34.873Z,28.05
2022-11-29T00:32:06.768Z,25.00
2022-11-29T00:34:38.813Z,24.83
2022-11-29T00:37:10.676Z,23.65
2022-11-29T00:39:42.636Z,25.27
2022-11-29T00:42:15.594Z,22.30
2022-11-29T00:44:48.930Z,21.35
2022-11-29T00:47:20.817Z,23.92
2022-11-29T00:49:52.772Z,20.85
2022-11-29T00:52:24.718Z,23.58
2022-11-29T00:54:56.657Z,21.95
2022-11-29T00:57:28.607Z,21.98
2022-11-29T01:00:01.938Z,22.83
2022-11-29T01:02:33.912Z,25.08
2022-11-29T01:05:06.352Z,17.35
2022-11-29T01:07:38.355Z,22.38
2022-11-29T01:10:10.555Z,19.52
2022-11-29T01:12:42.519Z,24.30
2022-11-29T01:15:16.071Z,20.85
2022-11-29T01:17:49.197Z,20.27
2022-11-29T01:20:21.557Z,17.08
2022-11-29T01:22:53.907Z,21.58
2022-11-29T01:25:25.983Z,24.80
2022-11-29T01:27:57.896Z,22.98
2022-11-29T01:30:31.235Z,23.95
2022-11-29T01:33:03.217Z,19.75
2022-11-29T01:35:35.161Z,18.05
2022-11-29T01:38:07.075Z,21.38
2022-11-29T01:40:39.053Z,21.92
2022-11-29T01:43:16.628Z,22.10
2022-11-29T01:45:50.633Z,19.95
2022-11-29T01:48:26.233Z,17.77
2022-11-29T01:51:01.701Z,18.20
2022-11-29T01:53:33.759Z,19.83
2022-11-29T01:56:07.715Z,18.33
2022-11-29T01:58:39.718Z,18.45
2022-11-29T02:01:14.079Z,17.65
2022-11-29T02:03:46.225Z,18.73
2022-11-29T02:06:18.513Z,18.30
2022-11-29T02:08:50.436Z,15.27
2022-11-29T02:11:48.756Z,18.60
2022-11-29T02:14:47.367Z,18.23
2022-11-29T02:17:29.665Z,15.20
2022-11-29T02:20:33.068Z,17.02
2022-11-29T02:23:25.682Z,15.50
2022-11-29T02:26:07.111Z,17.63
2022-11-29T02:29:07.159Z,15.77
2022-11-29T02:32:15.846Z,17.42
2022-11-29T02:35:03.590Z,15.05
2022-11-29T02:38:02.060Z,16.92
2022-11-29T02:40:54.794Z,15.65
2022-11-29T02:44:20.559Z,16.75
2022-11-29T02:47:06.356Z,17.50
2022-11-29T02:50:12.284Z,19.13
2022-11-29T02:52:53.265Z,15.02
2022-11-29T02:55:33.477Z,16.48
2022-11-29T03:00:50.186Z,16.60
2022-11-29T03:03:26.941Z,15.40
2022-11-29T03:06:11.053Z,16.73
2022-11-29T03:08:52.286Z,16.52
2022-11-29T03:11:32.800Z,15.75
2022-11-29T03:14:20.144Z,17.77
2022-11-29T03:17:03.540Z,15.30
2022-11-29T03:19:52.781Z,15.82
2022-11-29T03:22:39.496Z,18.48
2022-11-29T03:25:22.015Z,15.25
2022-11-29T03:28:00.695Z,16.85
2022-11-29T03:30:35.891Z,17.25
2022-11-29T03:33:15.217Z,15.23
2022-11-29T03:35:54.230Z,15.27
2022-11-29T03:38:29.985Z,16.83
2022-11-29T03:41:13.052Z,14.90
2022-11-29T03:43:51.854Z,14.50
2022-11-29T03:46:30.743Z,15.85
2022-11-29T03:49:07.396Z,14.02
2022-11-29T03:51:52.098Z,14.25
2022-11-29T03:54:29.680Z,13.65
2022-11-29T03:57:03.759Z,13.75
2022-11-29T03:59:52.356Z,12.90
2022-11-29T04:03:03.057Z,12.85
2022-11-29T04:06:10.064Z,10.43
2022-11-29T04:08:57.961Z,10.48
2022-11-29T04:12:21.283Z,13.55
2022-11-29T04:15:18.666Z,12.38
2022-11-29T04:18:12.419Z,11.95
2022-11-29T04:21:13.602Z,9.57
2022-11-29T04:24:28.215Z,9.32
2022-11-29T04:27:22.448Z,11.88
2022-11-29T04:30:19.695Z,10.02
2022-11-29T04:33:22.605Z,11.60
2022-11-29T04:36:45.046Z,8.25
2022-11-29T04:39:50.755Z,9.75
2022-11-29T04:42:57.561Z,9.40
2022-11-29T04:46:13.848Z,7.28
2022-11-29T04:49:09.764Z,7.05
2022-11-29T04:52:00.837Z,6.85
2022-11-29T04:54:37.657Z,8.63
2022-11-29T04:57:17.721Z,6.60
2022-11-29T04:59:53.453Z,7.25
2022-11-29T05:02:34.156Z,7.03
2022-11-29T05:05:18.628Z,7.88
2022-11-29T05:08:02.343Z,7.22
2022-11-29T05:10:40.204Z,7.60
2022-11-29T05:13:24.457Z,8.30
2022-11-29T05:16:28.291Z,7.57
2022-11-29T05:19:25.396Z,8.38
2022-11-29T05:22:07.918Z,8.80
2022-11-29T05:24:53.682Z,7.80
2022-11-29T05:27:38.489Z,8.15
2022-11-29T05:30:12.482Z,8.77
2022-11-29T05:33:04.270Z,10.00
2022-11-29T05:35:52.608Z,13.20
2022-11-29T05:38:39.236Z,10.27
2022-11-29T05:41:23.269Z,14.90
2022-11-29T05:44:07.529Z,15.13
2022-11-29T05:46:49.958Z,14.18
2022-11-29T05:49:33.767Z,12.55
2022-11-29T05:52:21.901Z,11.95
2022-11-29T05:55:10.153Z,18.58
2022-11-29T05:57:50.145Z,17.67
2022-11-29T06:00:23.074Z,21.33
2022-11-29T06:03:03.432Z,22.92
2022-11-29T06:05:42.106Z,15.95
2022-11-29T06:08:21.516Z,15.65
2022-11-29T06:10:57.820Z,13.53
2022-11-29T06:13:42.637Z,13.90
2022-11-29T06:16:31.116Z,13.73
2022-11-29T06:19:49.210Z,14.20
2022-11-29T06:22:39.667Z,17.83
2022-11-29T06:25:23.736Z,14.27
2022-11-29T06:28:12.806Z,11.75
2022-11-29T06:30:56.422Z,10.88
2022-11-29T06:33:38.510Z,15.50
2022-11-29T06:36:16.060Z,26.50
2022-11-29T06:38:49.760Z,26.10
2022-11-29T06:41:23.866Z,21.15
2022-11-29T06:43:56.491Z,18.55
2022-11-29T06:46:45.590Z,14.65
2022-11-29T06:49:25.306Z,17.00
2022-11-29T06:52:08.446Z,15.90
2022-11-29T06:54:57.536Z,11.77
2022-11-29T06:57:40.246Z,15.20
2022-11-29T07:00:18.082Z,12.25
2022-11-29T07:03:06.594Z,13.13
2022-11-29T07:05:39.449Z,16.50
2022-11-29T07:08:16.339Z,18.23
2022-11-29T07:10:53.278Z,16.25
2022-11-29T07:13:25.788Z,18.63
2022-11-29T07:16:04.078Z,18.08
2022-11-29T07:18:44.657Z,14.82
2022-11-29T07:21:24.460Z,12.70
2022-11-29T07:24:05.540Z,14.43
2022-11-29T07:26:46.386Z,14.20
2022-11-29T07:29:28.380Z,10.93
2022-11-29T07:32:09.041Z,12.73
2022-11-29T07:34:52.667Z,11.50
2022-11-29T07:37:35.012Z,10.75
2022-11-29T07:40:14.548Z,10.25
2022-11-29T07:43:01.076Z,9.50
2022-11-29T07:45:36.214Z,14.93
2022-11-29T07:48:11.012Z,16.17
2022-11-29T07:50:43.433Z,15.77
2022-11-29T07:53:17.406Z,15.13
2022-11-29T07:55:50.545Z,14.00
2022-11-29T07:58:24.093Z,16.02
2022-11-29T08:00:56.082Z,13.95
2022-11-29T08:03:28.289Z,18.77
2022-11-29T08:06:00.218Z,20.27
2022-11-29T08:08:32.208Z,17.30
2022-11-29T08:11:09.428Z,11.75
2022-11-29T08:13:42.838Z,13.88
2022-11-29T08:16:16.872Z,19.02
2022-11-29T08:18:49.496Z,18.95
2022-11-29T08:21:21.622Z,14.40
2022-11-29T08:23:53.716Z,13.55
2022-11-29T08:26:31.186Z,10.45
2022-11-29T08:29:05.095Z,13.55
2022-11-29T08:31:37.177Z,11.93
2022-11-29T08:34:10.673Z,12.55
2022-11-29T08:36:42.621Z,14.35
2022-11-29T08:39:14.620Z,17.85
2022-11-29T08:41:46.703Z,20.00
2022-11-29T08:44:20.225Z,20.48
2022-11-29T08:47:10.468Z,16.38
2022-11-29T08:50:00.670Z,23.35
2022-11-29T08:52:53.915Z,19.30
2022-11-29T08:55:27.798Z,19.23
2022-11-29T08:58:05.012Z,14.48
2022-11-29T09:00:39.189Z,16.50
2022-11-29T09:03:29.521Z,11.35
2022-11-29T09:06:08.995Z,9.48
2022-11-29T09:08:45.072Z,7.68
2022-11-29T09:11:19.808Z,7.85
2022-11-29T09:13:54.276Z,7.82
2022-11-29T09:16:29.261Z,7.18
2022-11-29T09:19:01.367Z,6.45
2022-11-29T09:21:36.667Z,6.10
2022-11-29T09:24:10.231Z,9.57
2022-11-29T09:26:42.470Z,8.65
2022-11-29T09:29:16.120Z,6.03
2022-11-29T09:31:49.480Z,6.28
2022-11-29T09:34:21.507Z,5.93
2022-11-29T09:36:53.458Z,6.68
2022-11-29T09:39:26.162Z,6.72
2022-11-29T09:42:31.965Z,7.30
2022-11-29T09:45:07.857Z,5.30
2022-11-29T09:48:01.623Z,7.97
2022-11-29T09:50:35.824Z,19.33
2022-11-29T09:53:26.125Z,14.70
2022-11-29T09:58:43.518Z,14.85
2022-11-29T10:01:23.304Z,16.33
2022-11-29T10:04:00.904Z,14.95
2022-11-29T10:06:38.871Z,16.35
2022-11-29T10:09:20.582Z,10.90
2022-11-29T10:12:04.227Z,11.98
2022-11-29T10:14:42.598Z,10.35
2022-11-29T10:17:26.861Z,9.95
2022-11-29T10:20:04.840Z,8.32
2022-11-29T10:22:42.590Z,8.27
2022-11-29T10:25:22.791Z,10.30
2022-11-29T10:27:54.952Z,6.57
2022-11-29T10:30:27.021Z,7.95
2022-11-29T10:33:00.744Z,7.25
2022-11-29T10:35:34.073Z,5.50
2022-11-29T10:38:29.599Z,4.40
2022-11-29T10:41:04.261Z,4.13
2022-11-29T10:43:37.497Z,4.40
2022-11-29T10:46:16.078Z,4.07
2022-11-29T10:48:48.180Z,3.28
2022-11-29T10:51:21.695Z,4.38
2022-11-29T10:53:57.215Z,6.47
2022-11-29T10:56:35.560Z,4.80
2022-11-29T10:59:11.986Z,3.50
2022-11-29T11:01:44.304Z,5.90
2022-11-29T11:04:26.240Z,4.50
2022-11-29T11:07:02.318Z,3.72
2022-11-29T11:09:36.973Z,8.80
2022-11-29T11:12:20.429Z,6.13
2022-11-29T11:14:52.373Z,6.38
2022-11-29T11:17:26.499Z,4.45
2022-11-29T11:20:00.993Z,3.95
2022-11-29T11:22:39.315Z,6.45
2022-11-29T11:25:28.174Z,6.80
2022-11-29T11:28:13.741Z,3.83
2022-11-29T11:30:51.743Z,5.07
2022-11-29T11:33:26.645Z,5.07
2022-11-29T11:36:04.135Z,4.78
2022-11-29T11:38:39.976Z,4.63
2022-11-29T11:41:22.050Z,5.28
2022-11-29T11:43:58.111Z,4.78
2022-11-29T11:46:46.857Z,5.75
2022-11-29T11:49:26.447Z,6.03
2022-11-29T11:51:59.583Z,6.47
2022-11-29T11:54:33.163Z,7.55
2022-11-29T11:57:05.521Z,7.35
2022-11-29T11:59:37.492Z,8.20
2022-11-29T12:02:25.343Z,8.85
2022-11-29T12:05:00.892Z,12.07
2022-11-29T12:08:06.907Z,10.85
2022-11-29T12:10:36.757Z,11.60
2022-11-29T12:13:17.871Z,12.45
2022-11-29T12:15:52.026Z,10.25
2022-11-29T12:18:30.790Z,13.93
2022-11-29T12:21:10.160Z,12.70
2022-11-29T12:23:49.169Z,6.53
2022-11-29T12:26:55.964Z,6.78
2022-11-29T12:29:22.333Z,6.80
2022-11-29T12:32:04.972Z,8.00
2022-11-29T12:34:56.098Z,10.68
2022-11-29T12:37:35.650Z,11.07
2022-11-29T12:40:19.151Z,8.45
2022-11-29T12:43:02.208Z,12.20
2022-11-29T12:45:44.704Z,11.00
2022-11-29T12:48:28.933Z,8.43
2022-11-29T12:51:10.801Z,6.78
2022-11-29T12:54:06.586Z,7.35
2022-11-29T12:56:47.399Z,6.15
2022-11-29T12:59:32.682Z,8.43
2022-11-29T13:02:31.424Z,5.90
2022-11-29T13:05:14.723Z,6.85
2022-11-29T13:08:03.367Z,6.05
2022-11-29T13:10:45.682Z,6.57
2022-11-29T13:13:23.558Z,5.97
2022-11-29T13:16:04.349Z,8.95
2022-11-29T13:18:42.699Z,7.47
2022-11-29T13:21:17.030Z,6.85
2022-11-29T13:24:12.188Z,7.53
2022-11-29T13:26:45.325Z,7.95
2022-11-29T13:29:19.081Z,11.30
2022-11-29T13:31:52.799Z,12.07
2022-11-29T13:34:29.189Z,17.90
2022-11-29T13:37:07.607Z,18.80
2022-11-29T13:39:53.646Z,17.70
2022-11-29T13:42:37.554Z,16.27
2022-11-29T13:45:21.948Z,17.23
2022-11-29T13:47:58.029Z,16.00
2022-11-29T13:50:42.100Z,14.77
2022-11-29T13:53:16.926Z,12.90
2022-11-29T13:56:00.159Z,15.43
2022-11-29T13:58:39.139Z,16.73
2022-11-29T14:01:13.008Z,15.80
2022-11-29T14:03:57.284Z,17.55
2022-11-29T14:06:33.453Z,13.20
2022-11-29T14:09:28.110Z,15.82
2022-11-29T14:12:22.276Z,12.98
2022-11-29T14:14:58.539Z,11.32
2022-11-29T14:17:45.574Z,13.43
2022-11-29T14:20:58.770Z,13.27
2022-11-29T14:23:40.500Z,27.27
2022-11-29T14:26:29.918Z,22.15
2022-11-29T14:29:21.851Z,25.27
2022-11-29T14:31:54.933Z,34.97
2022-11-29T14:34:41.766Z,27.65
2022-11-29T14:37:38.472Z,27.55
2022-11-29T14:40:25.979Z,25.25
2022-11-29T14:42:58.381Z,25.20
2022-11-29T14:45:32.988Z,25.02
2022-11-29T14:48:05.388Z,27.02
2022-11-29T14:50:39.894Z,20.27
2022-11-29T14:53:33.236Z,22.10
2022-11-29T14:56:39.115Z,21.95
2022-11-29T14:59:50.220Z,22.80
2022-11-29T15:02:29.485Z,18.95
2022-11-29T15:05:15.810Z,11.88
2022-11-29T15:07:52.998Z,10.32
2022-11-29T15:10:31.573Z,8.98
2022-11-29T15:13:04.763Z,9.13
2022-11-29T15:15:46.431Z,6.20
2022-11-29T15:18:35.411Z,8.65
2022-11-29T15:21:23.416Z,7.22
2022-11-29T15:23:59.627Z,8.55
2022-11-29T15:26:32.909Z,6.32
2022-11-29T15:29:14.838Z,5.05
2022-11-29T15:31:52.046Z,5.88
2022-11-29T15:34:31.554Z,5.30
2022-11-29T15:37:04.711Z,7.80
2022-11-29T15:39:37.709Z,7.38
2022-11-29T15:42:12.986Z,10.23
2022-11-29T15:44:46.456Z,17.63
2022-11-29T15:47:23.329Z,17.20
2022-11-29T15:49:55.243Z,12.55
2022-11-29T15:52:30.628Z,16.70
2022-11-29T15:55:05.507Z,12.15
2022-11-29T15:57:41.874Z,14.13
2022-11-29T16:00:19.524Z,12.77
2022-11-29T16:02:55.725Z,17.85
2022-11-29T16:05:31.742Z,15.90
2022-11-29T16:08:06.555Z,9.98
2022-11-29T16:10:43.749Z,7.63
2022-11-29T16:13:36.985Z,9.20
2022-11-29T16:16:16.342Z,7.50
2022-11-29T16:18:50.176Z,6.80
2022-11-29T16:21:25.534Z,5.53
2022-11-29T16:23:58.459Z,10.02
2022-11-29T16:26:34.356Z,12.77
2022-11-29T16:29:21.403Z,9.35
2022-11-29T16:31:53.817Z,18.60
2022-11-29T16:34:30.081Z,11.20
2022-11-29T16:37:03.907Z,12.48
2022-11-29T16:39:38.465Z,13.73
2022-11-29T16:42:20.529Z,16.05
2022-11-29T16:45:32.418Z,16.92
2022-11-29T16:48:28.277Z,13.15
2022-11-29T16:51:23.709Z,14.05
2022-11-29T16:53:55.930Z,15.60
2022-11-29T16:56:29.062Z,18.98
2022-11-29T16:59:20.512Z,27.30
2022-11-29T17:01:56.594Z,14.45
2022-11-29T17:04:28.646Z,20.95
2022-11-29T17:07:00.677Z,17.23
2022-11-29T17:09:34.199Z,15.32
2022-11-29T17:12:06.628Z,14.57
2022-11-29T17:14:38.573Z,13.32
2022-11-29T17:17:14.603Z,15.05
2022-11-29T17:19:47.103Z,14.88
2022-11-29T17:22:19.010Z,15.38
2022-11-29T17:24:51.131Z,26.75
2022-11-29T17:27:23.971Z,22.13
2022-11-29T17:29:55.990Z,10.30
2022-11-29T17:32:29.369Z,23.70
2022-11-29T17:35:01.606Z,14.27
2022-11-29T17:37:33.560Z,12.55
2022-11-29T17:40:06.575Z,18.55
2022-11-29T17:42:38.510Z,18.80
2022-11-29T17:45:11.153Z,18.25
2022-11-29T17:47:44.475Z,29.50
2022-11-29T17:50:16.381Z,36.28
2022-11-29T17:52:48.290Z,37.25
2022-11-29T17:55:20.877Z,31.10
2022-11-29T17:57:53.481Z,30.92
2022-11-29T18:00:25.655Z,22.92
2022-11-29T18:02:59.040Z,22.80
2022-11-29T18:05:34.495Z,28.60
2022-11-29T18:08:06.959Z,28.08
2022-11-29T18:10:38.960Z,17.35
2022-11-29T18:13:10.904Z,18.42
2022-11-29T18:15:42.856Z,14.85
2022-11-29T18:18:16.217Z,15.45
2022-11-29T18:20:48.090Z,17.80
2022-11-29T18:23:19.994Z,17.10
2022-11-29T18:25:57.135Z,25.77
2022-11-29T18:28:30.732Z,21.90
2022-11-29T18:31:07.043Z,15.40
2022-11-29T18:33:41.307Z,16.45
2022-11-29T18:36:14.968Z,12.25
2022-11-29T18:38:47.967Z,14.18
2022-11-29T18:41:22.405Z,12.80
2022-11-29T18:43:58.977Z,12.05
2022-11-29T18:46:32.898Z,13.32
2022-11-29T18:49:08.093Z,17.33
2022-11-29T18:51:42.293Z,13.88
2022-11-29T18:54:14.933Z,10.45
2022-11-29T18:56:49.317Z,13.20
2022-11-29T18:59:22.988Z,10.98
2022-11-29T19:01:54.969Z,11.15
2022-11-29T19:04:28.348Z,11.23
2022-11-29T19:07:00.240Z,11.70
2022-11-29T19:09:32.147Z,19.75
2022-11-29T19:12:04.167Z,27.67
2022-11-29T19:14:36.064Z,38.17
2022-11-29T19:17:08.074Z,98.32
2022-11-29T19:19:41.410Z,35.80
2022-11-29T19:22:13.358Z,17.83
2022-11-29T19:24:45.435Z,19.80
2022-11-29T19:27:17.488Z,15.05
2022-11-29T19:29:51.151Z,13.98
2022-11-29T19:32:23.146Z,15.65
2022-11-29T19:34:57.357Z,17.10
2022-11-29T19:37:29.297Z,19.10
2022-11-29T19:40:01.266Z,17.52
2022-11-29T19:42:33.204Z,12.95
2022-11-29T19:45:16.827Z,19.65
2022-11-29T19:47:49.976Z,13.85
2022-11-29T19:50:23.490Z,17.08
2022-11-29T19:52:55.548Z,18.63
2022-11-29T19:55:27.504Z,18.20
2022-11-29T19:57:59.407Z,16.98
2022-11-29T20:00:31.322Z,17.67
2022-11-29T20:03:03.347Z,20.08
2022-11-29T20:05:36.683Z,23.90
2022-11-29T20:08:08.613Z,19.30
2022-11-29T20:10:40.573Z,23.52
2022-11-29T20:13:12.438Z,17.25
2022-11-29T20:15:44.398Z,23.85
2022-11-29T20:18:16.405Z,18.95
2022-11-29T20:20:49.774Z,15.77
2022-11-29T20:23:21.687Z,16.10
2022-11-29T20:25:55.361Z,14.50
2022-11-29T20:28:27.568Z,14.15
2022-11-29T20:31:05.049Z,12.32
2022-11-29T20:33:38.533Z,11.88
2022-11-29T20:36:23.106Z,12.93
2022-11-29T20:39:00.830Z,24.77
2022-11-29T20:41:41.700Z,14.73
2022-11-29T20:44:19.653Z,19.25
2022-11-29T20:46:51.823Z,9.18
2022-11-29T20:49:24.320Z,11.50
2022-11-29T20:52:05.549Z,22.58
2022-11-29T20:54:37.470Z,17.27
2022-11-29T20:57:09.382Z,12.80
2022-11-29T20:59:41.304Z,11.60
2022-11-29T21:02:13.332Z,12.45
2022-11-29T21:04:45.548Z,15.95
2022-11-29T21:07:19.142Z,13.25
2022-11-29T21:09:51.132Z,16.27
2022-11-29T21:12:23.675Z,9.57
2022-11-29T21:14:56.158Z,15.18
2022-11-29T21:17:33.459Z,10.82
2022-11-29T21:20:08.862Z,9.18
2022-11-29T21:22:52.477Z,9.77
2022-11-29T21:25:35.298Z,16.88
2022-11-29T21:28:12.115Z,9.98
2022-11-29T21:30:44.633Z,10.65
2022-11-29T21:33:16.986Z,10.10
2022-11-29T21:35:53.132Z,11.05
2022-11-29T21:38:27.137Z,9.05
2022-11-29T21:40:59.077Z,9.32
2022-11-29T21:44:04.212Z,8.57
2022-11-29T21:46:22.992Z,9.90
2022-11-29T21:48:54.992Z,8.27
2022-11-29T21:51:26.898Z,11.07
2022-11-29T21:54:01.262Z,10.43
2022-11-29T21:56:33.189Z,16.15
2022-11-29T21:59:05.859Z,11.55
2022-11-29T22:01:37.893Z,8.18
2022-11-29T22:04:10.100Z,11.55
2022-11-29T22:06:42.040Z,8.25
2022-11-29T22:09:15.335Z,7.70
2022-11-29T22:11:47.509Z,13.40
2022-11-29T22:14:19.433Z,7.70
2022-11-29T22:16:52.750Z,7.65
2022-11-29T22:19:26.963Z,10.02
2022-11-29T22:22:00.788Z,7.85
2022-11-29T22:24:35.443Z,8.73
2022-11-29T22:27:07.436Z,9.15
2022-11-29T22:29:39.377Z,9.98
2022-11-29T22:32:11.317Z,9.77
2022-11-29T22:34:43.354Z,9.82
2022-11-29T22:37:15.308Z,7.82
2022-11-29T22:39:49.448Z,7.95
2022-11-29T22:42:21.463Z,7.88
2022-11-29T22:44:53.342Z,8.57
2022-11-29T22:47:25.469Z,9.57
2022-11-29T22:49:57.415Z,7.00
2022-11-29T22:52:29.316Z,10.95
2022-11-29T22:55:05.061Z,11.77
2022-11-29T22:57:37.349Z,9.68
2022-11-29T23:00:10.968Z,10.10
2022-11-29T23:02:42.864Z,7.82
2022-11-29T23:05:14.806Z,8.82
2022-11-29T23:07:47.349Z,7.60
2022-11-29T23:10:20.709Z,7.93
2022-11-29T23:12:53.096Z,6.65
2022-11-29T23:15:25.086Z,8.55
2022-11-29T23:17:57.042Z,7.50
2022-11-29T23:20:30.940Z,7.10
2022-11-29T23:23:02.816Z,7.63
2022-11-29T23:25:36.119Z,7.78
2022-11-29T23:28:08.150Z,8.82
2022-11-29T23:30:40.316Z,8.20
2022-11-29T23:33:12.269Z,7.93
2022-11-29T23:35:44.210Z,7.57
2022-11-29T23:38:16.661Z,6.93
2022-11-29T23:40:49.927Z,7.03
2022-11-29T23:43:22.097Z,6.03
2022-11-29T23:45:54.085Z,8.07
2022-11-29T23:48:26.135Z,7.63
2022-11-29T23:50:58.024Z,7.90
2022-11-29T23:53:29.911Z,6.47
2022-11-29T23:56:07.339Z,7.25
2022-11-29T23:58:39.320Z,8.15
